createdAt,value
2019-02-07T00:00:58.297Z,101331.32
2019-02-07T00:04:02.266Z,101332.20
2019-02-07T00:07:06.243Z,101322.53
2019-02-07T00:10:10.764Z,101321.64
2019-02-07T00:13:14.570Z,101317.25
2019-02-07T00:16:18.493Z,101313.75
2019-02-07T00:19:22.305Z,101311.59
2019-02-07T00:22:26.175Z,101307.61
2019-02-07T00:25:30.076Z,101298.84
2019-02-07T00:28:34.044Z,101290.95
2019-02-07T00:31:37.934Z,101290.95
2019-02-07T00:34:41.835Z,101285.27
2019-02-07T00:37:46.003Z,101276.49
2019-02-07T00:40:49.881Z,101272.98
2019-02-07T00:43:53.718Z,101268.60
2019-02-07T00:46:57.578Z,101266.45
2019-02-07T00:50:01.387Z,101258.56
2019-02-07T00:53:05.337Z,101250.20
2019-02-07T00:56:09.256Z,101249.31
2019-02-07T00:59:13.084Z,101244.94
2019-02-07T01:02:16.994Z,101236.19
2019-02-07T01:05:22.139Z,101237.50
2019-02-07T01:08:26.113Z,101228.30
2019-02-07T01:11:29.926Z,101225.66
2019-02-07T01:14:33.902Z,101223.02
2019-02-07T01:17:37.881Z,101228.28
2019-02-07T01:20:41.845Z,101223.90
2019-02-07T01:23:45.781Z,101209.44
2019-02-07T01:26:49.714Z,101210.31
2019-02-07T01:29:53.662Z,101205.51
2019-02-07T01:32:57.619Z,101196.29
2019-02-07T01:36:01.447Z,101190.16
2019-02-07T01:39:08.405Z,101186.20
2019-02-07T01:42:12.243Z,101185.77
2019-02-07T01:45:18.639Z,101176.58
2019-02-07T01:48:22.620Z,101175.69
2019-02-07T01:51:26.611Z,101171.75
2019-02-07T01:54:30.486Z,101162.12
2019-02-07T01:57:34.362Z,101156.41
2019-02-07T02:00:38.266Z,101148.08
2019-02-07T02:03:42.133Z,101142.37
2019-02-07T02:06:45.939Z,101138.02
2019-02-07T02:09:49.961Z,101124.85
2019-02-07T02:12:54.167Z,101123.54
2019-02-07T02:15:58.118Z,101110.39
2019-02-07T02:19:02.043Z,101098.98
2019-02-07T02:22:06.388Z,101094.63
2019-02-07T02:25:10.824Z,101089.36
2019-02-07T02:28:14.689Z,101080.59
2019-02-07T02:31:18.942Z,101071.37
2019-02-07T02:34:22.740Z,101067.00
2019-02-07T02:37:26.741Z,101063.08
2019-02-07T02:40:30.994Z,101055.17
2019-02-07T02:43:34.841Z,101053.43
2019-02-07T02:46:38.811Z,101047.30
2019-02-07T02:49:43.082Z,101043.33
2019-02-07T02:52:47.099Z,101032.38
2019-02-07T02:55:52.067Z,101026.23
2019-02-07T02:58:56.138Z,101024.95
2019-02-07T03:02:37.155Z,101014.41
2019-02-07T03:05:55.040Z,101000.41
2019-02-07T03:09:17.465Z,101002.16
2019-02-07T03:12:35.526Z,100992.08
2019-02-07T03:15:58.427Z,100992.05
2019-02-07T03:19:19.963Z,100974.96
2019-02-07T03:22:42.732Z,100974.08
2019-02-07T03:26:05.633Z,100964.01
2019-02-07T03:29:34.717Z,100960.50
2019-02-07T03:32:55.179Z,100952.59
2019-02-07T03:36:30.135Z,100949.10
2019-02-07T03:39:59.375Z,100939.01
2019-02-07T03:43:12.954Z,100927.60
2019-02-07T03:46:41.829Z,100917.55
2019-02-07T03:50:11.479Z,100908.74
2019-02-07T03:53:35.868Z,100897.79
2019-02-07T03:56:57.751Z,100900.41
2019-02-07T04:00:20.671Z,100887.25
2019-02-07T04:03:46.699Z,100885.51
2019-02-07T04:07:15.188Z,100875.88
2019-02-07T04:10:56.488Z,100871.47
2019-02-07T04:14:13.125Z,100861.84
2019-02-07T04:17:38.861Z,100857.01
2019-02-07T04:21:00.662Z,100847.37
2019-02-07T04:24:13.427Z,100840.34
2019-02-07T04:27:45.834Z,100835.55
2019-02-07T04:31:08.180Z,100832.44
2019-02-07T04:34:36.431Z,100819.72
2019-02-07T04:38:08.701Z,100811.84
2019-02-07T04:41:26.546Z,100808.80
2019-02-07T04:44:49.637Z,100796.09
2019-02-07T04:48:06.854Z,100787.75
2019-02-07T04:51:27.623Z,100779.42
2019-02-07T04:54:56.226Z,100778.98
2019-02-07T04:58:18.297Z,100764.51
2019-02-07T05:01:34.806Z,100764.51
2019-02-07T05:05:03.680Z,100751.78
2019-02-07T05:08:26.604Z,100741.69
2019-02-07T05:11:49.492Z,100736.00
2019-02-07T05:15:30.703Z,100728.55
2019-02-07T05:18:46.372Z,100716.22
2019-02-07T05:22:08.014Z,100702.21
2019-02-07T05:25:32.498Z,100697.75
2019-02-07T05:29:07.920Z,100684.23
2019-02-07T05:32:20.569Z,100676.36
2019-02-07T05:35:42.446Z,100676.36
2019-02-07T05:39:20.647Z,100659.27
2019-02-07T05:42:43.505Z,100661.87
2019-02-07T05:46:07.652Z,100656.61
2019-02-07T05:49:42.364Z,100646.15
2019-02-07T05:53:17.404Z,100638.23
2019-02-07T05:56:29.544Z,100625.92
2019-02-07T06:00:04.482Z,100621.20
2019-02-07T06:03:30.269Z,100618.56
2019-02-07T06:06:48.399Z,100610.21
2019-02-07T06:10:10.875Z,100605.80
2019-02-07T06:13:33.743Z,100611.06
2019-02-07T06:17:02.649Z,100598.34
2019-02-07T06:20:12.558Z,100594.44
2019-02-07T06:23:30.734Z,100581.28
2019-02-07T06:26:54.867Z,100568.56
2019-02-07T06:30:12.635Z,100564.15
2019-02-07T06:33:26.346Z,100561.09
2019-02-07T06:36:48.335Z,100552.34
2019-02-07T06:40:04.938Z,100547.05
2019-02-07T06:43:20.723Z,100535.26
2019-02-07T06:46:42.455Z,100532.63
2019-02-07T06:49:58.699Z,100526.48
2019-02-07T06:53:27.333Z,100519.44
2019-02-07T06:57:08.828Z,100518.16
2019-02-07T07:00:38.517Z,100512.94
2019-02-07T07:04:16.631Z,100508.53
2019-02-07T07:07:30.980Z,100506.29
2019-02-07T07:11:00.348Z,100496.70
2019-02-07T07:14:12.884Z,100491.01
2019-02-07T07:17:27.866Z,100480.92
2019-02-07T07:20:53.713Z,100470.39
2019-02-07T07:24:15.189Z,100460.30
2019-02-07T07:27:41.186Z,100453.73
2019-02-07T07:31:13.617Z,100444.98
2019-02-07T07:34:39.764Z,100435.70
2019-02-07T07:37:55.252Z,100432.59
2019-02-07T07:41:17.191Z,100431.84
2019-02-07T07:44:38.723Z,100421.23
2019-02-07T07:48:00.098Z,100416.35
2019-02-07T07:51:28.969Z,100411.17
2019-02-07T07:54:50.686Z,100407.70
2019-02-07T07:58:13.563Z,100403.28
2019-02-07T08:01:40.553Z,100395.78
2019-02-07T08:04:57.683Z,100391.88
2019-02-07T08:08:19.441Z,100381.36
2019-02-07T08:11:57.664Z,100377.88
2019-02-07T08:15:08.487Z,100375.95
2019-02-07T08:18:37.179Z,100369.05
2019-02-07T08:21:55.211Z,100365.48
2019-02-07T08:25:17.202Z,100353.27
2019-02-07T08:28:42.799Z,100353.22
2019-02-07T08:32:11.928Z,100352.84
2019-02-07T08:35:33.658Z,100344.06
2019-02-07T08:38:59.736Z,100343.13
2019-02-07T08:42:32.841Z,100336.92
2019-02-07T08:46:05.024Z,100333.41
2019-02-07T08:49:34.729Z,100318.56
2019-02-07T08:53:09.589Z,100319.81
2019-02-07T08:56:31.117Z,100309.61
2019-02-07T08:59:52.774Z,100301.34
2019-02-07T09:03:14.395Z,100304.83
2019-02-07T09:06:40.146Z,100298.14
2019-02-07T09:10:08.928Z,100288.94
2019-02-07T09:13:22.399Z,100284.09
2019-02-07T09:16:45.943Z,100273.66
2019-02-07T09:20:09.407Z,100271.28
2019-02-07T09:23:38.068Z,100263.89
2019-02-07T09:26:59.786Z,100254.73
2019-02-07T09:30:23.369Z,100258.19
2019-02-07T09:33:39.594Z,100251.97
2019-02-07T09:37:02.431Z,100255.55
2019-02-07T09:40:29.612Z,100254.14
2019-02-07T09:43:49.612Z,100248.39
2019-02-07T09:47:11.410Z,100249.34
2019-02-07T09:50:27.219Z,100238.34
2019-02-07T09:53:39.436Z,100249.69
2019-02-07T09:57:04.460Z,100244.38
2019-02-07T10:00:32.648Z,100246.95
2019-02-07T10:04:00.688Z,100245.14
2019-02-07T10:07:15.151Z,100237.08
2019-02-07T10:10:30.451Z,100243.23
2019-02-07T10:13:51.951Z,100239.66
2019-02-07T10:17:13.946Z,100237.42
2019-02-07T10:20:40.840Z,100229.12
2019-02-07T10:24:03.907Z,100221.83
2019-02-07T10:27:35.889Z,100219.67
2019-02-07T10:30:59.839Z,100217.84
2019-02-07T10:34:21.779Z,100214.69
2019-02-07T10:37:51.192Z,100220.30
2019-02-07T10:41:06.053Z,100202.69
2019-02-07T10:44:21.232Z,100205.74
2019-02-07T10:47:37.631Z,100197.42
2019-02-07T10:50:59.148Z,100203.49
2019-02-07T10:54:25.097Z,100199.97
2019-02-07T10:57:48.267Z,100195.45
2019-02-07T11:01:14.745Z,100189.69
2019-02-07T11:04:41.115Z,100181.38
2019-02-07T11:07:58.446Z,100186.08
2019-02-07T11:11:20.208Z,100181.89
2019-02-07T11:14:46.229Z,100190.73
2019-02-07T11:18:01.482Z,100185.38
2019-02-07T11:21:18.878Z,100181.02
2019-02-07T11:24:40.120Z,100181.08
2019-02-07T11:28:10.719Z,100172.20
2019-02-07T11:31:22.250Z,100172.83
2019-02-07T11:34:47.167Z,100167.25
2019-02-07T11:37:59.450Z,100161.34
2019-02-07T11:41:35.972Z,100157.23
2019-02-07T11:45:07.780Z,100152.62
2019-02-07T11:48:20.238Z,100163.88
2019-02-07T11:51:47.353Z,100148.31
2019-02-07T11:55:13.225Z,100142.06
2019-02-07T11:58:30.309Z,100143.38
2019-02-07T12:01:51.898Z,100150.13
2019-02-07T12:05:13.638Z,100139.87
2019-02-07T12:08:28.728Z,100146.05
2019-02-07T12:11:48.716Z,100140.78
2019-02-07T12:15:01.642Z,100155.02
2019-02-07T12:18:20.898Z,100157.99
2019-02-07T12:21:42.500Z,100146.27
2019-02-07T12:25:04.278Z,100153.72
2019-02-07T12:28:27.159Z,100137.55
2019-02-07T12:31:40.849Z,100133.17
2019-02-07T12:35:02.530Z,100142.51
2019-02-07T12:38:30.056Z,100135.31
2019-02-07T12:41:47.776Z,100142.56
2019-02-07T12:45:05.115Z,100145.91
2019-02-07T12:48:21.036Z,100147.78
2019-02-07T12:51:36.166Z,100139.39
2019-02-07T12:55:01.909Z,100152.56
2019-02-07T12:58:23.643Z,100137.85
2019-02-07T13:01:46.607Z,100143.13
2019-02-07T13:05:08.094Z,100122.48
2019-02-07T13:08:37.188Z,100128.67
2019-02-07T13:11:51.727Z,100136.23
2019-02-07T13:15:03.299Z,100134.89
2019-02-07T13:18:35.119Z,100151.05
2019-02-07T13:22:04.159Z,100160.30
2019-02-07T13:25:30.868Z,100167.80
2019-02-07T13:28:53.866Z,100154.00
2019-02-07T13:32:15.676Z,100161.91
2019-02-07T13:35:44.455Z,100162.08
2019-02-07T13:38:56.559Z,100158.31
2019-02-07T13:42:14.615Z,100157.12
2019-02-07T13:45:39.286Z,100154.81
2019-02-07T13:49:05.146Z,100144.09
2019-02-07T13:52:28.135Z,100161.23
2019-02-07T13:56:00.392Z,100161.00
2019-02-07T13:59:38.912Z,100159.44
2019-02-07T14:02:58.049Z,100157.95
2019-02-07T14:06:22.215Z,100157.30
2019-02-07T14:09:57.162Z,100147.41
2019-02-07T14:13:18.941Z,100141.56
2019-02-07T14:16:33.899Z,100139.81
2019-02-07T14:20:04.061Z,100142.97
2019-02-07T14:23:30.367Z,100137.17
2019-02-07T14:26:52.060Z,100141.98
2019-02-07T14:30:21.114Z,100141.56
2019-02-07T14:33:42.856Z,100136.53
2019-02-07T14:37:11.747Z,100137.80
2019-02-07T14:40:32.675Z,100119.66
2019-02-07T14:44:01.369Z,100124.49
2019-02-07T14:47:05.376Z,100118.31
2019-02-07T14:50:14.871Z,100120.92
2019-02-07T14:53:15.373Z,100119.93
2019-02-07T14:56:19.273Z,100111.60
2019-02-07T14:59:23.484Z,100105.50
2019-02-07T15:02:27.304Z,100103.92
2019-02-07T15:05:31.568Z,100097.73
2019-02-07T15:08:35.847Z,100094.47
2019-02-07T15:11:39.715Z,100085.15
2019-02-07T15:14:43.593Z,100091.50
2019-02-07T15:17:47.983Z,100087.16
2019-02-07T15:20:51.867Z,100087.55
2019-02-07T15:23:55.708Z,100082.80
2019-02-07T15:26:59.874Z,100074.46
2019-02-07T15:30:05.296Z,100072.65
2019-02-07T15:33:09.167Z,100071.99
2019-02-07T15:36:13.508Z,100071.22
2019-02-07T15:39:19.133Z,100058.88
2019-02-07T15:42:23.118Z,100057.92
2019-02-07T15:45:27.943Z,100062.06
2019-02-07T15:48:31.963Z,100051.66
2019-02-07T15:51:35.803Z,100057.20
2019-02-07T15:54:40.065Z,100051.02
2019-02-07T15:57:44.052Z,100044.16
2019-02-07T16:00:57.579Z,100047.31
2019-02-07T16:04:14.020Z,100048.58
2019-02-07T16:07:18.266Z,100050.36
2019-02-07T16:10:22.261Z,100034.45
2019-02-07T16:13:26.207Z,100039.90
2019-02-07T16:16:30.196Z,100034.53
2019-02-07T16:19:35.022Z,100033.45
2019-02-07T16:22:38.853Z,100028.55
2019-02-07T16:25:42.668Z,100021.48
2019-02-07T16:28:46.619Z,100011.39
2019-02-07T16:31:50.502Z,100018.90
2019-02-07T16:34:54.569Z,100015.59
2019-02-07T16:37:58.508Z,100010.08
2019-02-07T16:41:02.482Z,100007.44
2019-02-07T16:44:06.474Z,100013.17
2019-02-07T16:47:10.328Z,100008.89
2019-02-07T16:50:16.130Z,100003.22
2019-02-07T16:53:20.024Z,100004.39
2019-02-07T16:56:23.932Z,100007.44
2019-02-07T16:59:27.835Z,99997.49
2019-02-07T17:02:31.647Z,100006.75
2019-02-07T17:05:37.784Z,100009.30
2019-02-07T17:08:41.236Z,100012.09
2019-02-07T17:11:45.221Z,99990.99
2019-02-07T17:14:49.022Z,99998.11
2019-02-07T17:17:52.927Z,99995.12
2019-02-07T17:20:56.756Z,99986.71
2019-02-07T17:24:00.566Z,99973.85
2019-02-07T17:27:04.488Z,99966.04
2019-02-07T17:30:13.105Z,99965.84
2019-02-07T17:33:17.014Z,99962.64
2019-02-07T17:36:20.829Z,99983.08
2019-02-07T17:39:24.699Z,99990.50
2019-02-07T17:42:28.697Z,100009.49
2019-02-07T17:45:32.658Z,100017.80
2019-02-07T17:48:36.570Z,100031.77
2019-02-07T17:51:40.549Z,100045.66
2019-02-07T17:54:44.447Z,100041.41
2019-02-07T17:57:48.460Z,100052.53
2019-02-07T18:01:01.095Z,100036.91
2019-02-07T18:04:05.293Z,100050.09
2019-02-07T18:07:09.591Z,100030.91
2019-02-07T18:10:13.885Z,100031.38
2019-02-07T18:13:17.803Z,100038.23
2019-02-07T18:16:21.673Z,100018.77
2019-02-07T18:19:25.871Z,100037.70
2019-02-07T18:22:29.758Z,100023.55
2019-02-07T18:25:33.741Z,100018.32
2019-02-07T18:28:38.065Z,100023.59
2019-02-07T18:31:42.064Z,100031.87
2019-02-07T18:34:45.986Z,100039.41
2019-02-07T18:37:51.525Z,100023.81
2019-02-07T18:40:55.392Z,100018.20
2019-02-07T18:43:59.249Z,100021.45
2019-02-07T18:47:03.467Z,100033.52
2019-02-07T18:50:10.472Z,100026.19
2019-02-07T18:53:14.446Z,100033.89
2019-02-07T18:56:18.817Z,100037.65
2019-02-07T18:59:22.764Z,100031.38
2019-02-07T19:02:26.693Z,100024.49
2019-02-07T19:05:30.989Z,100034.27
2019-02-07T19:08:34.907Z,100042.34
2019-02-07T19:11:38.829Z,100050.23
2019-02-07T19:14:43.219Z,100051.20
2019-02-07T19:17:47.106Z,100049.91
2019-02-07T19:20:50.928Z,100068.38
2019-02-07T19:23:55.178Z,100044.55
2019-02-07T19:26:59.076Z,100060.94
2019-02-07T19:30:03.070Z,100101.49
2019-02-07T19:33:07.362Z,100087.38
2019-02-07T19:36:11.269Z,100064.95
2019-02-07T19:39:15.241Z,100061.89
2019-02-07T19:42:19.141Z,100046.16
2019-02-07T19:45:23.208Z,100060.16
2019-02-07T19:48:27.035Z,100098.94
2019-02-07T19:51:31.007Z,100112.39
2019-02-07T19:54:34.865Z,100075.53
2019-02-07T19:57:38.713Z,100066.11
2019-02-07T20:00:42.691Z,100083.78
2019-02-07T20:03:46.598Z,100075.00
2019-02-07T20:06:50.420Z,100101.30
2019-02-07T20:09:54.264Z,100118.84
2019-02-07T20:12:58.292Z,100093.00
2019-02-07T20:16:02.211Z,100107.08
2019-02-07T20:19:06.193Z,100107.61
2019-02-07T20:22:19.874Z,100093.55
2019-02-07T20:25:15.991Z,100117.12
2019-02-07T20:28:19.964Z,100107.89
2019-02-07T20:31:23.785Z,100126.74
2019-02-07T20:34:27.657Z,100128.41
2019-02-07T20:37:31.471Z,100122.23
2019-02-07T20:40:35.558Z,100150.28
2019-02-07T20:43:39.717Z,100148.56
2019-02-07T20:46:43.614Z,100150.28
2019-02-07T20:49:47.435Z,100159.78
2019-02-07T20:52:52.358Z,100152.84
2019-02-07T20:55:56.329Z,100169.43
2019-02-07T20:59:00.174Z,100186.05
2019-02-07T21:02:04.643Z,100181.41
2019-02-07T21:05:10.047Z,100190.75
2019-02-07T21:08:14.545Z,100191.09
2019-02-07T21:11:18.468Z,100201.29
2019-02-07T21:14:22.291Z,100203.03
2019-02-07T21:17:26.217Z,100187.56
2019-02-07T21:20:30.417Z,100209.61
2019-02-07T21:23:34.261Z,100226.66
2019-02-07T21:26:38.114Z,100229.78
2019-02-07T21:29:42.096Z,100238.03
2019-02-07T21:32:45.975Z,100237.20
2019-02-07T21:35:49.907Z,100238.86
2019-02-07T21:38:53.716Z,100239.00
2019-02-07T21:41:57.542Z,100254.92
2019-02-07T21:45:01.520Z,100241.20
2019-02-07T21:48:08.567Z,100252.30
2019-02-07T21:51:12.458Z,100251.38
2019-02-07T21:54:16.655Z,100263.52
2019-02-07T21:57:20.530Z,100273.70
2019-02-07T22:00:30.457Z,100281.66
2019-02-07T22:03:34.433Z,100276.70
2019-02-07T22:06:38.339Z,100284.82
2019-02-07T22:09:42.267Z,100281.47
2019-02-07T22:12:46.501Z,100287.23
2019-02-07T22:15:50.332Z,100295.06
2019-02-07T22:18:54.175Z,100295.95
2019-02-07T22:21:58.004Z,100303.02
2019-02-07T22:25:01.962Z,100297.34
2019-02-07T22:28:06.732Z,100305.66
2019-02-07T22:31:10.575Z,100306.14
2019-02-07T22:34:14.456Z,100310.91
2019-02-07T22:37:18.458Z,100325.89
2019-02-07T22:40:23.051Z,100312.37
2019-02-07T22:43:26.878Z,100312.31
2019-02-07T22:46:30.697Z,100297.77
2019-02-07T22:49:34.558Z,100324.58
2019-02-07T22:52:38.543Z,100320.02
2019-02-07T22:55:42.357Z,100330.97
2019-02-07T22:58:46.134Z,100323.66
2019-02-07T23:01:55.094Z,100331.81
2019-02-07T23:04:58.988Z,100320.44
2019-02-07T23:08:02.917Z,100336.18
2019-02-07T23:11:08.898Z,100330.95
2019-02-07T23:14:13.378Z,100336.30
2019-02-07T23:17:17.281Z,100343.24
2019-02-07T23:20:21.624Z,100353.22
2019-02-07T23:23:25.608Z,100358.15
2019-02-07T23:26:29.516Z,100355.80
2019-02-07T23:29:33.355Z,100359.81
2019-02-07T23:32:37.305Z,100356.36
2019-02-07T23:35:41.147Z,100385.62
2019-02-07T23:38:45.005Z,100368.97
2019-02-07T23:41:48.850Z,100360.59
2019-02-07T23:44:52.685Z,100365.56
2019-02-07T23:47:56.714Z,100368.12
2019-02-07T23:51:00.690Z,100392.03
2019-02-07T23:54:05.410Z,100373.56
2019-02-07T23:57:09.406Z,100373.09
